Time;durP1;ratioP1;P1;durP2;ratioP2;P2;SDS_P1;SDS_P2;PMS_P1;PMS_P2;Temp;Humidity;BMP_temperature;BMP_pressure;BME280_temperature;BME280_humidity;BME280_pressure;Samples;Min_cycle;Max_cycle;Signal;HPM_P1;HPM_P2
2021/10/18 00:00:56;;;;;;;4.60;2.40;;;;;;;6.12;84.90;99851.31;1809555;78;21461;-64
2021/10/18 00:03:23;;;;;;;5.87;2.02;;;;;;;6.04;84.95;99861.42;1773831;80;22278;-64
2021/10/18 00:05:50;;;;;;;5.08;2.05;;;;;;;5.96;85.02;99862.06;1806314;78;20938;-64
2021/10/18 00:08:16;;;;;;;3.02;1.35;;;;;;;5.88;85.08;99861.41;1770740;80;21050;-64
2021/10/18 00:10:43;;;;;;;4.05;1.22;;;;;;;5.83;85.14;99864.56;1780281;79;21074;-64
2021/10/18 00:13:10;;;;;;;4.30;1.60;;;;;;;5.78;85.19;99870.30;1780339;78;20895;-63
2021/10/18 00:15:36;;;;;;;3.13;1.40;;;;;;;5.72;85.26;99867.42;1790591;79;20954;-64
2021/10/18 00:18:03;;;;;;;1.92;1.17;;;;;;;5.71;85.37;99866.14;1804145;78;21528;-64
2021/10/18 00:20:30;;;;;;;5.57;1.40;;;;;;;5.71;85.50;99868.73;1808558;78;21016;-64
2021/10/18 00:22:57;;;;;;;5.05;1.62;;;;;;;5.72;85.57;99868.71;1786315;78;21674;-63
2021/10/18 00:25:23;;;;;;;3.25;1.90;;;;;;;5.75;85.59;99872.97;1782542;78;21007;-64
2021/10/18 00:27:50;;;;;;;5.05;1.80;;;;;;;5.76;85.65;99875.50;1807493;78;20984;-63
2021/10/18 00:30:16;;;;;;;3.42;2.42;;;;;;;5.77;85.65;99875.05;1779915;79;20989;-63
2021/10/18 00:32:43;;;;;;;3.20;1.82;;;;;;;5.77;85.65;99873.76;1768362;79;20991;-63
2021/10/18 00:35:11;;;;;;;3.90;1.70;;;;;;;5.76;85.67;99874.66;1789403;78;22300;-64
2021/10/18 00:37:38;;;;;;;;;;;;;;;5.76;85.74;99875.95;1789645;79;21050;-64
2021/10/18 00:40:07;;;;;;;5.33;1.87;;;;;;;5.75;85.82;99874.27;1776152;78;20182;-64
2021/10/18 00:42:39;;;;;;;2.85;1.77;;;;;;;5.77;85.91;99877.64;1780199;79;21021;-64
2021/10/18 00:45:07;;;;;;;5.03;2.08;;;;;;;5.79;85.95;99877.17;1779775;79;21536;-63
2021/10/18 00:47:35;;;;;;;6.05;3.17;;;;;;;5.80;85.97;99873.71;1782884;79;21073;-64
2021/10/18 00:50:04;;;;;;;5.67;2.92;;;;;;;5.83;86.04;99878.36;1781752;79;21066;-64
2021/10/18 00:52:33;;;;;;;4.45;1.85;;;;;;;5.86;86.09;99881.32;1780438;79;20887;-64
2021/10/18 00:55:00;;;;;;;4.85;1.90;;;;;;;5.89;86.09;99883.83;1777065;79;20919;-64
2021/10/18 00:57:27;;;;;;;5.28;3.45;;;;;;;5.91;86.11;99892.42;1779250;79;21072;-64
2021/10/18 00:59:55;;;;;;;4.27;2.67;;;;;;;5.90;86.11;99882.93;1776627;78;21078;-64
2021/10/18 01:02:22;;;;;;;5.85;2.72;;;;;;;5.90;86.13;99890.70;1775009;79;20942;-64
2021/10/18 01:04:49;;;;;;;5.62;1.98;;;;;;;5.91;86.15;99895.02;1782802;79;20941;-64
2021/10/18 01:07:16;;;;;;;5.37;2.70;;;;;;;5.90;86.13;99895.05;1780954;78;21052;-64
2021/10/18 01:09:43;;;;;;;3.87;2.00;;;;;;;5.87;86.09;99890.78;1777178;78;21227;-64
2021/10/18 01:12:09;;;;;;;9.18;3.00;;;;;;;5.84;86.15;99897.34;1776290;79;22254;-64
2021/10/18 01:14:37;;;;;;;3.42;1.62;;;;;;;5.83;86.21;99896.95;1795443;77;21042;-64
2021/10/18 01:17:04;;;;;;;5.05;2.10;;;;;;;5.80;86.24;99902.21;1759976;80;21051;-64
2021/10/18 01:19:31;;;;;;;2.60;1.60;;;;;;;5.77;86.24;99904.85;1796963;78;20947;-64
2021/10/18 01:22:02;;;;;;;4.72;1.72;;;;;;;5.74;86.22;99904.92;1762083;80;21062;-64
2021/10/18 01:24:31;;;;;;;4.15;1.80;;;;;;;5.68;86.19;99902.49;1798683;78;21111;-64
2021/10/18 01:26:59;;;;;;;3.60;1.95;;;;;;;5.59;86.21;99903.13;1763826;79;21060;-64
2021/10/18 01:29:25;;;;;;;;;;;;;;;5.53;86.24;99902.42;1801722;78;21584;-63
2021/10/18 01:31:52;;;;;;;2.40;1.47;;;;;;;5.49;86.38;99912.02;1792406;78;20121;-64
2021/10/18 01:34:19;;;;;;;3.58;1.62;;;;;;;5.44;86.41;99912.56;1788296;79;21048;-64
2021/10/18 01:36:47;;;;;;;6.13;1.97;;;;;;;5.41;86.40;99907.91;1783794;79;22337;-64
2021/10/18 01:39:14;;;;;;;4.20;3.00;;;;;;;5.37;86.41;99908.40;1761272;79;21167;-64
2021/10/18 01:41:41;;;;;;;6.35;1.90;;;;;;;5.32;86.40;99907.64;1762038;80;20939;-64
2021/10/18 01:44:07;;;;;;;6.08;2.30;;;;;;;5.26;86.34;99901.32;1767409;79;20985;-64
2021/10/18 01:46:34;;;;;;;3.30;1.90;;;;;;;5.20;86.41;99905.34;1768705;79;20926;-64
2021/10/18 01:49:01;;;;;;;2.15;1.52;;;;;;;5.14;86.41;99916.23;1775205;80;22312;-64
2021/10/18 01:51:27;;;;;;;6.67;2.10;;;;;;;5.11;86.53;99915.02;1773253;80;21552;-64
2021/10/18 01:53:54;;;;;;;2.40;1.47;;;;;;;5.05;86.52;99907.39;1768451;80;21579;-64
2021/10/18 01:56:20;;;;;;;3.65;1.70;;;;;;;5.00;86.65;99910.52;1759957;80;21026;-64
2021/10/18 01:58:47;;;;;;;4.80;2.95;;;;;;;4.98;86.74;99910.98;1760884;79;21087;-64
2021/10/18 02:01:13;;;;;;;8.28;4.30;;;;;;;4.97;86.76;99913.17;1773713;80;22235;-64
2021/10/18 02:03:40;;;;;;;3.85;2.00;;;;;;;4.97;86.82;99911.88;1771339;80;20999;-64
2021/10/18 02:06:10;;;;;;;4.08;1.87;;;;;;;4.98;86.87;99921.33;1771469;80;20983;-64
2021/10/18 02:08:38;;;;;;;3.98;1.62;;;;;;;4.96;86.84;99912.77;1764488;80;21091;-63
2021/10/18 02:11:06;;;;;;;6.78;2.33;;;;;;;4.93;86.80;99921.89;1768228;80;21004;-64
2021/10/18 02:13:32;;;;;;;5.55;1.80;;;;;;;4.90;86.74;99910.28;1775195;80;21925;-64
2021/10/18 02:15:59;;;;;;;4.17;2.33;;;;;;;4.87;86.79;99912.94;1772723;80;21564;-63
2021/10/18 02:18:26;;;;;;;2.80;1.67;;;;;;;4.85;86.85;99919.91;1774326;78;21087;-63
2021/10/18 02:20:59;;;;;;;4.85;2.08;;;;;;;4.83;86.95;99924.25;1769558;79;20951;-63
2021/10/18 02:23:21;;;;;;;4.95;1.82;;;;;;;4.80;86.92;99926.91;1769708;80;21078;-64
2021/10/18 02:25:47;;;;;;;3.70;2.08;;;;;;;4.75;86.88;99928.73;1765355;80;21583;-63
2021/10/18 02:28:14;;;;;;;4.28;2.37;;;;;;;4.68;86.90;99936.61;1765391;80;20939;-63
2021/10/18 02:30:40;;;;;;;6.83;1.98;;;;;;;4.64;86.89;99940.13;1766448;80;20929;-64
2021/10/18 02:33:07;;;;;;;7.33;2.27;;;;;;;4.60;86.94;99943.67;1768053;79;21033;-64
2021/10/18 02:35:34;;;;;;;7.95;2.80;;;;;;;4.56;86.98;99943.30;1763564;80;20944;-64
2021/10/18 02:38:01;;;;;;;3.25;1.52;;;;;;;4.54;87.08;99946.38;1767100;80;21513;-64
2021/10/18 02:40:28;;;;;;;4.83;1.40;;;;;;;4.50;87.10;99947.30;1767707;80;21049;-64
2021/10/18 02:42:54;;;;;;;3.20;1.70;;;;;;;4.48;87.19;99954.23;1766398;80;20916;-64
2021/10/18 02:45:21;;;;;;;6.35;2.30;;;;;;;4.44;87.17;99961.64;1765279;79;21484;-64
2021/10/18 02:47:48;;;;;;;8.40;2.08;;;;;;;4.41;87.12;99965.58;1764781;80;20970;-64
2021/10/18 02:50:14;;;;;;;5.20;2.27;;;;;;;4.36;87.17;99962.22;1764090;79;21499;-64
2021/10/18 02:52:41;;;;;;;5.45;4.90;;;;;;;4.34;87.20;99958.80;1763960;79;21606;-64
2021/10/18 02:55:09;;;;;;;8.08;4.17;;;;;;;4.29;87.17;99965.81;1767058;79;21003;-64
2021/10/18 02:57:35;;;;;;;;;;;;;;;4.25;87.14;99965.84;1770567;79;21016;-63
2021/10/18 03:00:05;;;;;;;3.58;2.85;;;;;;;4.22;87.26;99965.89;1769453;79;20200;-64
2021/10/18 03:02:34;;;;;;;6.20;1.92;;;;;;;4.18;87.28;99968.13;1761913;80;20942;-64
2021/10/18 03:05:00;;;;;;;7.90;1.90;;;;;;;4.15;87.25;99977.23;1759328;80;20948;-64
2021/10/18 03:07:27;;;;;;;7.35;2.12;;;;;;;4.10;87.21;99971.28;1760071;80;21057;-64
2021/10/18 03:09:53;;;;;;;6.62;3.70;;;;;;;4.06;87.31;99974.78;1761529;80;20940;-64
2021/10/18 03:12:20;;;;;;;5.97;2.42;;;;;;;4.05;87.44;99980.84;1763931;80;20998;-64
2021/10/18 03:14:47;;;;;;;7.00;2.70;;;;;;;4.02;87.45;99975.73;1766070;80;21549;-64
2021/10/18 03:17:13;;;;;;;3.83;1.90;;;;;;;3.99;87.42;99965.45;1765009;80;20938;-64
2021/10/18 03:19:40;;;;;;;4.95;2.45;;;;;;;3.94;87.30;99973.26;1760987;79;21013;-64
2021/10/18 03:22:06;;;;;;;13.90;1.62;;;;;;;3.88;87.22;99980.27;1764334;80;21386;-64
2021/10/18 03:24:33;;;;;;;2.77;1.40;;;;;;;3.80;87.23;99982.95;1769731;80;21018;-64
2021/10/18 03:27:00;;;;;;;2.20;1.60;;;;;;;3.71;87.09;99988.27;1765399;80;21250;-64
2021/10/18 03:29:26;;;;;;;5.08;1.77;;;;;;;3.63;87.08;99988.38;1762210;80;20927;-64
2021/10/18 03:31:53;;;;;;;2.25;1.52;;;;;;;3.60;87.28;99991.01;1762740;79;20946;-63
2021/10/18 03:34:20;;;;;;;4.30;2.10;;;;;;;3.56;87.31;99992.79;1762962;80;21595;-64
2021/10/18 03:36:46;;;;;;;5.97;2.85;;;;;;;3.52;87.31;99992.84;1794768;78;21092;-64
2021/10/18 03:39:13;;;;;;;3.15;2.20;;;;;;;3.48;87.31;99996.36;1798601;78;22290;-64
2021/10/18 03:41:39;;;;;;;7.42;2.33;;;;;;;3.44;87.41;99992.09;1801329;78;21117;-64
2021/10/18 03:44:06;;;;;;;2.58;2.17;;;;;;;3.41;87.41;99999.89;1800164;78;21064;-64
2021/10/18 03:46:33;;;;;;;5.72;2.50;;;;;;;3.38;87.48;100010.25;1795674;78;21001;-64
2021/10/18 03:48:59;;;;;;;6.62;1.90;;;;;;;3.35;87.54;100004.25;1776125;79;20992;-64
2021/10/18 03:51:26;;;;;;;6.83;1.55;;;;;;;3.32;87.61;100006.87;1771592;79;22338;-64
2021/10/18 03:53:53;;;;;;;4.58;2.20;;;;;;;3.31;87.65;100009.49;1806178;78;20984;-64
2021/10/18 03:56:20;;;;;;;3.47;2.10;;;;;;;3.28;87.60;100012.97;1809433;78;20922;-64
2021/10/18 03:58:46;;;;;;;6.75;1.92;;;;;;;3.25;87.55;100010.42;1786091;80;20940;-64
2021/10/18 04:01:13;;;;;;;6.60;2.65;;;;;;;3.25;87.70;100014.30;1782830;80;20958;-64
2021/10/18 04:03:39;;;;;;;2.10;1.32;;;;;;;3.22;87.65;100023.37;1769456;79;22271;-64
2021/10/18 04:06:06;;;;;;;4.03;2.73;;;;;;;3.18;87.53;100024.27;1767784;79;21541;-64
2021/10/18 04:08:33;;;;;;;5.92;2.27;;;;;;;3.13;87.52;100028.62;1769171;79;21030;-63
2021/10/18 04:11:01;;;;;;;4.50;2.50;;;;;;;3.09;87.64;100025.67;1773289;78;20942;-64
2021/10/18 04:13:28;;;;;;;3.50;2.30;;;;;;;3.08;87.72;100035.56;1773029;79;21070;-64
2021/10/18 04:15:55;;;;;;;3.92;2.20;;;;;;;3.06;87.77;100032.16;1771321;79;21119;-64
2021/10/18 04:18:21;;;;;;;4.33;2.40;;;;;;;3.03;87.75;100032.20;1767715;79;20891;-64
2021/10/18 04:20:49;;;;;;;6.12;3.55;;;;;;;3.01;87.85;100037.81;1766136;80;21261;-64
2021/10/18 04:23:15;;;;;;;5.05;3.05;;;;;;;3.01;88.04;100045.55;1776416;79;20997;-64
2021/10/18 04:25:43;;;;;;;3.83;2.03;;;;;;;3.02;88.08;100038.22;1774781;80;20974;-63
2021/10/18 04:28:09;;;;;;;;;;;;;;;2.99;87.99;100039.09;1768320;79;21078;-64
2021/10/18 04:30:36;;;;;;;3.22;2.05;;;;;;;2.96;88.00;100043.45;1779337;80;20169;-64
2021/10/18 04:33:03;;;;;;;4.87;2.30;;;;;;;2.94;88.00;100046.47;1769098;80;20966;-64
2021/10/18 04:35:30;;;;;;;2.55;2.12;;;;;;;2.90;87.89;100050.37;1791545;80;20934;-64
2021/10/18 04:37:56;;;;;;;3.08;2.40;;;;;;;2.85;87.83;100048.27;1773611;79;20934;-63
2021/10/18 04:40:23;;;;;;;3.12;2.35;;;;;;;2.80;87.86;100048.78;1770973;79;21826;-64
2021/10/18 04:42:50;;;;;;;4.50;2.92;;;;;;;2.79;88.00;100043.63;1773771;80;20981;-64
2021/10/18 04:45:16;;;;;;;7.10;2.30;;;;;;;2.79;88.07;100046.20;1783240;80;20942;-63
2021/10/18 04:47:44;;;;;;;7.40;3.30;;;;;;;2.77;88.03;100047.50;1772984;80;20935;-63
2021/10/18 04:50:11;;;;;;;5.12;3.00;;;;;;;2.75;88.09;100050.55;1778541;80;20942;-64
2021/10/18 04:52:38;;;;;;;5.00;3.23;;;;;;;2.72;87.96;100047.13;1775762;79;21480;-64
2021/10/18 04:55:06;;;;;;;6.58;3.55;;;;;;;2.65;87.91;100046.34;1771437;80;21060;-64
2021/10/18 04:57:33;;;;;;;5.65;3.25;;;;;;;2.60;87.93;100050.69;1774395;79;21532;-63
2021/10/18 05:00:00;;;;;;;3.00;2.60;;;;;;;2.58;88.05;100052.45;1773743;79;21612;-63
2021/10/18 05:02:26;;;;;;;3.70;2.22;;;;;;;2.56;88.13;100054.17;1770171;80;20978;-64
2021/10/18 05:04:53;;;;;;;4.85;2.83;;;;;;;2.53;88.07;100056.78;1768470;80;21449;-64
2021/10/18 05:07:19;;;;;;;10.90;5.08;;;;;;;2.49;88.04;100061.09;1787442;79;21032;-64
2021/10/18 05:09:46;;;;;;;7.50;4.87;;;;;;;2.48;88.13;100064.55;1771422;79;21453;-64
2021/10/18 05:12:13;;;;;;;7.33;5.87;;;;;;;2.46;88.14;100060.71;1765294;80;21580;-64
2021/10/18 05:14:40;;;;;;;6.00;4.22;;;;;;;2.42;88.15;100069.77;1770467;79;21686;-64
2021/10/18 05:17:06;;;;;;;5.75;3.02;;;;;;;2.41;88.14;100074.06;1767733;80;21066;-64
2021/10/18 05:19:33;;;;;;;6.43;2.80;;;;;;;2.36;88.01;100084.84;1768944;79;21514;-64
2021/10/18 05:22:01;;;;;;;19.05;5.95;;;;;;;2.30;87.92;100084.89;1779596;79;21703;-61
2021/10/18 05:24:29;;;;;;;25.08;9.00;;;;;;;2.29;88.11;100087.03;1774661;79;21052;-61
2021/10/18 05:26:55;;;;;;;15.18;7.72;;;;;;;2.32;88.32;100092.16;1771166;78;21015;-62
2021/10/18 05:29:23;;;;;;;15.53;6.07;;;;;;;2.35;88.37;100094.73;1774478;79;21106;-61
2021/10/18 05:31:50;;;;;;;13.10;5.90;;;;;;;2.41;88.37;100104.99;1768806;79;20918;-62
2021/10/18 05:34:16;;;;;;;17.35;7.33;;;;;;;2.45;88.50;100106.66;1750028;80;21599;-62
2021/10/18 05:36:43;;;;;;;16.17;7.45;;;;;;;2.50;88.45;100103.21;1742579;80;20959;-62
2021/10/18 05:39:12;;;;;;;14.75;6.15;;;;;;;2.51;88.29;100105.76;1742972;79;21861;-62
2021/10/18 05:41:38;;;;;;;5.75;3.83;;;;;;;2.51;88.12;100115.22;1750089;81;22239;-62
2021/10/18 05:44:05;;;;;;;6.10;3.17;;;;;;;2.56;88.06;100122.48;1748834;80;21666;-62
2021/10/18 05:46:32;;;;;;;20.12;10.63;;;;;;;2.64;87.74;100133.16;1749753;81;20966;-62
2021/10/18 05:48:58;;;;;;;15.13;6.12;;;;;;;2.76;87.89;100128.32;1747363;80;21017;-62
2021/10/18 05:51:26;;;;;;;14.13;5.67;;;;;;;2.95;88.01;100129.45;1756911;80;21990;-62
2021/10/18 05:53:52;;;;;;;9.65;4.53;;;;;;;3.18;88.04;100132.64;1751466;80;21068;-61
2021/10/18 05:56:20;;;;;;;11.88;4.70;;;;;;;3.30;87.63;100132.50;1740262;80;20927;-62
2021/10/18 05:58:46;;;;;;;12.93;8.10;;;;;;;3.33;87.47;100129.91;1744339;80;21540;-63
2021/10/18 06:01:14;;;;;;;18.20;10.17;;;;;;;3.42;87.44;100133.23;1748936;80;21523;-62
2021/10/18 06:03:41;;;;;;;13.68;8.55;;;;;;;3.52;87.72;100133.11;1748411;80;21064;-62
2021/10/18 06:06:13;;;;;;;15.53;10.23;;;;;;;3.60;87.45;100138.19;1751261;80;21053;-63
2021/10/18 06:08:39;;;;;;;13.93;9.38;;;;;;;3.65;87.23;100139.00;1747951;80;21000;-63
2021/10/18 06:11:06;;;;;;;21.20;13.18;;;;;;;3.70;87.22;100145.41;1749292;80;21120;-62
2021/10/18 06:13:33;;;;;;;23.20;11.95;;;;;;;3.87;87.29;100145.19;1744099;80;20997;-61
2021/10/18 06:16:02;;;;;;;19.42;11.22;;;;;;;4.09;87.28;100149.60;1732192;80;20887;-62
2021/10/18 06:18:29;;;;;;;17.82;11.35;;;;;;;4.32;87.20;100146.71;1747781;80;21072;-61
2021/10/18 06:20:56;;;;;;;13.53;9.95;;;;;;;4.57;87.22;100148.04;1755983;80;20974;-61
2021/10/18 06:23:24;;;;;;;18.73;11.10;;;;;;;4.84;87.02;100144.12;1746320;80;21628;-61
2021/10/18 06:25:51;;;;;;;21.68;11.83;;;;;;;5.02;86.92;100150.73;1745190;80;21553;-62
2021/10/18 06:28:18;;;;;;;14.60;9.83;;;;;;;5.23;86.90;100147.33;1741144;81;26795;-62
2021/10/18 06:30:45;;;;;;;13.33;8.23;;;;;;;5.43;86.98;100150.38;1748632;80;21522;-61
2021/10/18 06:33:12;;;;;;;17.80;9.03;;;;;;;5.70;87.01;100162.39;1746217;79;21629;-61
2021/10/18 06:35:40;;;;;;;14.20;8.83;;;;;;;5.94;87.06;100168.86;1764479;79;21489;-62
2021/10/18 06:38:13;;;;;;;15.20;8.58;;;;;;;6.17;86.82;100165.77;1758098;79;21006;-60
2021/10/18 06:41:15;;;;;;;14.23;8.50;;;;;;;6.28;86.44;100171.56;1751753;80;21105;-60
2021/10/18 06:43:42;;;;;;;17.37;10.50;;;;;;;6.44;86.51;100180.70;1702684;83;21758;-60
2021/10/18 06:46:11;;;;;;;17.62;9.25;;;;;;;6.64;86.73;100179.39;1710736;83;21658;-60
2021/10/18 06:48:38;;;;;;;15.40;9.03;;;;;;;6.72;86.30;100190.41;1711745;83;21061;-61
2021/10/18 06:51:05;;;;;;;14.10;7.97;;;;;;;6.73;86.18;100189.54;1741910;81;21105;-60
2021/10/18 06:53:34;;;;;;;25.30;9.37;;;;;;;6.77;86.51;100190.31;1734643;81;21832;-60
2021/10/18 06:56:03;;;;;;;26.57;9.95;;;;;;;6.76;86.88;100192.05;1711415;83;21251;-60
2021/10/18 06:58:29;;;;;;;23.73;8.90;;;;;;;6.86;87.44;100193.55;1727814;81;21522;-60
2021/10/18 07:01:00;;;;;;;20.23;7.80;;;;;;;7.06;87.87;100197.39;1725760;81;20970;-60
2021/10/18 07:03:28;;;;;;;14.35;7.87;;;;;;;7.18;87.90;100194.47;1726575;82;22389;-60
2021/10/18 07:05:54;;;;;;;9.58;5.25;;;;;;;7.29;87.97;100195.05;1725998;81;21033;-60
2021/10/18 07:08:22;;;;;;;7.17;3.72;;;;;;;7.29;87.92;100187.25;1727573;81;21509;-60
2021/10/18 07:10:59;;;;;;;;;;;;;;;7.33;88.08;100194.06;1703876;82;21013;-60
2021/10/18 07:13:22;;;;;;;6.28;4.20;;;;;;;7.43;88.35;100188.64;1716965;81;20572;-60
2021/10/18 07:15:48;;;;;;;7.10;4.30;;;;;;;7.45;88.43;100195.50;1728619;81;20979;-60
2021/10/18 07:18:15;;;;;;;6.67;4.15;;;;;;;7.56;88.68;100189.98;1727278;82;21083;-60
2021/10/18 07:20:42;;;;;;;7.28;4.25;;;;;;;7.70;88.81;100203.91;1730888;81;21570;-60
2021/10/18 07:23:10;;;;;;;7.47;3.83;;;;;;;7.77;88.74;100199.80;1727162;82;21516;-60
2021/10/18 07:25:41;;;;;;;13.60;4.15;;;;;;;7.90;89.00;100196.84;1728351;81;21601;-60
2021/10/18 07:28:08;;;;;;;6.28;3.47;;;;;;;8.07;89.23;100198.53;1729613;82;21445;-60
2021/10/18 07:30:38;;;;;;;6.65;3.67;;;;;;;8.19;89.16;100202.05;1727320;81;21114;-60
2021/10/18 07:33:04;;;;;;;7.90;4.05;;;;;;;8.30;89.05;100205.19;1728241;82;21121;-60
2021/10/18 07:36:24;;;;;;;4.37;3.35;;;;;;;8.39;88.70;100208.44;1731494;81;28464;-60
2021/10/18 07:38:53;;;;;;;5.47;3.37;;;;;;;8.41;88.85;100210.56;1707677;82;21006;-60
2021/10/18 07:42:30;;;;;;;7.50;3.62;;;;;;;8.54;88.64;100210.56;1802410;79;24638;-60
2021/10/18 07:44:57;;;;;;;;;;;;;;;8.63;88.95;100215.50;1771001;79;20962;-61
2021/10/18 07:47:27;;;;;;;6.22;3.33;;;;;;;8.70;88.59;100209.19;1767484;80;21026;-60
2021/10/18 07:49:54;;;;;;;7.58;3.37;;;;;;;8.77;88.74;100212.92;1769923;79;21719;-61
2021/10/18 07:52:26;;;;;;;4.95;3.70;;;;;;;8.93;88.86;100206.28;1766327;80;21003;-61
2021/10/18 08:08:42;;;;;;;;;;;;;;;;;;;;;
2021/10/18 08:11:23;;;;;;;5.03;3.12;;;;;;;10.11;87.80;100216.94;1786660;78;24561;-61
2021/10/18 08:14:13;;;;;;;4.78;2.60;;;;;;;10.07;87.74;100218.36;1744967;80;21023;-60
2021/10/18 08:17:06;;;;;;;;;;;;;;;;;;;;;
2021/10/18 08:19:44;;;;;;;7.35;2.90;;;;;;;10.00;87.56;100223.42;1740579;80;22082;-60
2021/10/18 08:22:34;;;;;;;3.92;2.55;;;;;;;10.00;87.52;100227.34;1743038;80;21144;-61
2021/10/18 08:25:51;;;;;;;;;;;;;;;;;;;;;
2021/10/18 08:28:29;;;;;;;3.17;1.98;;;;;;;10.02;86.58;100230.72;1623049;84;21574;-61
2021/10/18 08:31:27;;;;;;;4.15;2.02;;;;;;;9.81;86.81;100231.52;1682704;83;21045;-61
2021/10/18 08:34:05;;;;;;;4.72;2.77;;;;;;;9.90;87.25;100237.70;1679834;83;20993;-61
2021/10/18 08:36:36;;;;;;;6.35;2.40;;;;;;;10.03;87.32;100242.03;1682064;84;21053;-61
2021/10/18 08:41:41;;;;;;;3.17;1.98;;;;;;;9.98;86.85;100246.11;1673497;84;21151;-61
2021/10/18 08:44:19;;;;;;;2.08;1.40;;;;;;;9.93;86.32;100247.17;1629595;86;21474;-61
2021/10/18 08:46:53;;;;;;;2.33;1.45;;;;;;;9.86;85.65;100240.04;1626699;86;21024;-61
2021/10/18 08:49:21;;;;;;;1.70;1.30;;;;;;;9.76;85.95;100254.30;1627821;86;22315;-62
2021/10/18 08:51:49;;;;;;;2.40;1.22;;;;;;;9.75;85.79;100248.24;1627211;86;21089;-61
2021/10/18 08:54:18;;;;;;;;;;;;;;;9.79;86.19;100249.81;1628886;86;21105;-61
2021/10/18 08:56:45;;;;;;;1.85;1.10;;;;;;;9.85;85.80;100249.59;1630334;86;21107;-61
2021/10/18 08:59:11;;;;;;;2.17;1.10;;;;;;;9.91;86.05;100255.50;1624183;86;21005;-62
2021/10/18 09:01:45;;;;;;;3.27;1.30;;;;;;;9.99;85.48;100256.08;1628556;86;21107;-61
2021/10/18 09:04:25;;;;;;;2.00;0.90;;;;;;;9.93;84.97;100257.16;1627814;86;21044;-61
2021/10/18 09:06:58;;;;;;;1.02;0.50;;;;;;;9.84;84.95;100260.09;1627081;87;21175;-62
2021/10/18 09:09:27;;;;;;;1.47;0.50;;;;;;;9.86;84.66;100260.91;1639378;85;22344;-61
2021/10/18 09:11:57;;;;;;;0.30;0.20;;;;;;;9.64;81.83;100264.26;1643771;85;22269;-62
2021/10/18 09:14:25;;;;;;;12.10;1.00;;;;;;;9.46;82.36;100266.18;1643211;86;21105;-62
2021/10/18 09:16:52;;;;;;;;;;;;;;;9.41;83.42;100266.81;1643590;86;21108;-62
2021/10/18 09:19:24;;;;;;;;;;;;;;;9.49;83.68;100264.77;1685307;83;20204;-62
2021/10/18 09:21:57;;;;;;;1.72;0.78;;;;;;;9.45;82.23;100268.39;1699375;82;22060;-61
2021/10/18 09:24:37;;;;;;;0.88;0.57;;;;;;;9.36;82.33;100263.50;1703958;83;21082;-62
2021/10/18 09:27:09;;;;;;;1.50;0.37;;;;;;;9.29;78.66;100265.90;1703983;82;21027;-62
2021/10/18 09:29:45;;;;;;;1.32;0.60;;;;;;;9.13;80.12;100270.33;1702050;82;21005;-62
2021/10/18 09:32:30;;;;;;;26.27;3.95;;;;;;;9.13;80.77;100267.72;1706257;82;21026;-61
2021/10/18 09:35:11;;;;;;;7.67;0.98;;;;;;;9.22;81.51;100267.02;1701840;82;21237;-61
2021/10/18 09:37:42;;;;;;;0.95;0.42;;;;;;;9.26;81.56;100263.40;1705634;82;21076;-61
2021/10/18 09:40:14;;;;;;;3.05;0.42;;;;;;;9.19;80.21;100269.27;1674546;83;21117;-61
2021/10/18 09:43:16;;;;;;;1.77;0.60;;;;;;;9.08;80.39;100270.92;1699518;83;20951;-62
2021/10/18 09:46:24;;;;;;;1.45;0.50;;;;;;;9.00;81.12;100271.62;1702445;82;21062;-61
2021/10/18 10:51:35;;;;;;;5.20;0.70;;;;;;;9.73;76.72;100268.75;1687038;83;21604;-62
2021/10/18 10:54:03;;;;;;;;;;;;;;;;;;;;;
2021/10/18 10:56:32;;;;;;;30.70;1.80;;;;;;;10.00;77.01;100266.47;1684606;83;20963;-62
2021/10/18 11:04:37;;;;;;;86.20;5.92;;;;;;;10.40;76.71;100267.63;1861226;75;21769;-61
2021/10/18 11:07:15;;;;;;;20.48;2.62;;;;;;;10.42;76.50;100277.57;1816999;77;21029;-61
2021/10/18 11:09:47;;;;;;;22.45;1.70;;;;;;;10.50;76.00;100275.95;1820053;77;21464;-61
2021/10/18 11:12:42;;;;;;;48.40;4.58;;;;;;;10.24;74.36;100270.38;1820794;77;20928;-62
2021/10/18 11:15:21;;;;;;;2.25;0.82;;;;;;;10.18;75.19;100268.85;1757594;80;20956;-62
2021/10/18 11:17:53;;;;;;;2.95;0.82;;;;;;;10.04;73.79;100269.81;1754430;80;21036;-62
2021/10/18 11:20:25;;;;;;;36.33;6.70;;;;;;;9.88;73.88;100279.94;1778986;78;20988;-61
2021/10/18 11:22:56;;;;;;;2.75;0.72;;;;;;;9.80;74.58;100274.14;1777865;78;21545;-60
2021/10/18 11:25:30;;;;;;;1.72;0.70;;;;;;;9.71;72.62;100277.08;1783572;78;21028;-61
2021/10/18 11:28:00;;;;;;;2.30;1.05;;;;;;;9.64;74.03;100272.08;1727150;79;21473;-61
2021/10/18 11:30:30;;;;;;;1.82;0.72;;;;;;;9.66;70.76;100271.16;1767715;79;21325;-61
2021/10/18 11:33:02;;;;;;;1.07;0.82;;;;;;;9.64;73.05;100270.77;1763204;79;21551;-62
2021/10/18 11:35:32;;;;;;;2.02;0.70;;;;;;;9.79;74.39;100264.63;1764395;79;22234;-61
2021/10/18 11:38:17;;;;;;;1.60;0.85;;;;;;;9.91;74.05;100274.61;1765517;79;21562;-61
2021/10/18 11:40:50;;;;;;;2.27;0.95;;;;;;;10.05;74.69;100277.59;1762937;79;21410;-62
2021/10/18 11:43:21;;;;;;;4.00;1.07;;;;;;;10.17;74.54;100272.84;1714396;79;21076;-61
2021/10/18 11:45:52;;;;;;;3.95;1.20;;;;;;;10.33;74.60;100281.81;1731591;80;21561;-61
2021/10/18 11:49:41;;;;;;;1.90;1.30;;;;;;;10.40;72.85;100283.30;1837529;76;22715;-60
2021/10/18 11:52:09;;;;;;;2.12;1.40;;;;;;;10.27;73.43;100280.73;1811468;78;20954;-60
2021/10/18 11:54:37;;;;;;;4.35;1.77;;;;;;;10.27;73.97;100284.66;1809749;78;22444;-60
2021/10/18 11:57:05;;;;;;;1.67;0.78;;;;;;;10.23;73.84;100285.66;1815847;78;21572;-60
2021/10/18 11:59:33;;;;;;;2.10;1.22;;;;;;;10.29;74.44;100282.84;1809789;78;21669;-61
2021/10/18 12:02:05;;;;;;;27.62;4.45;;;;;;;10.37;74.20;100282.11;1814796;78;21061;-61
2021/10/18 12:04:37;;;;;;;5.75;1.35;;;;;;;10.47;74.21;100274.34;1815250;78;22247;-61
2021/10/18 12:07:04;;;;;;;1.82;0.88;;;;;;;10.47;73.85;100279.98;1806200;78;21086;-61
2021/10/18 12:09:30;;;;;;;2.37;0.67;;;;;;;10.47;73.85;100271.73;1814483;78;20981;-61
2021/10/18 12:12:13;;;;;;;1.63;0.93;;;;;;;10.22;72.60;100255.23;1813634;78;21597;-61
2021/10/18 12:14:52;;;;;;;3.83;3.08;;;;;;;10.28;73.65;100268.11;1816461;76;21622;-62
2021/10/18 12:17:18;;;;;;;1.50;1.02;;;;;;;10.19;72.92;100268.39;1811472;78;20939;-64
2021/10/18 12:19:45;;;;;;;6.43;0.93;;;;;;;10.14;73.38;100267.70;1760836;79;21487;-62
2021/10/18 12:22:13;;;;;;;3.25;1.20;;;;;;;10.21;73.93;100269.20;1748397;81;21018;-62
2021/10/18 12:24:40;;;;;;;2.47;1.67;;;;;;;10.25;73.31;100263.81;1762695;79;21482;-62
2021/10/18 12:27:12;;;;;;;5.20;1.98;;;;;;;10.22;73.55;100268.27;1764497;79;21447;-61
2021/10/18 12:29:38;;;;;;;96.35;12.35;;;;;;;10.33;73.94;100266.15;1744943;79;21034;-62
2021/10/18 12:32:09;;;;;;;66.07;11.75;;;;;;;10.49;74.21;100269.89;1766703;79;21517;-61
2021/10/18 12:34:36;;;;;;;61.20;11.57;;;;;;;10.65;74.28;100266.70;1763299;79;20936;-61
2021/10/18 12:37:11;;;;;;;5.25;2.12;;;;;;;10.70;73.82;100265.61;1770748;79;21465;-61
2021/10/18 12:40:02;;;;;;;9.28;2.47;;;;;;;10.71;73.85;100271.68;1764682;80;21046;-62
2021/10/18 12:42:34;;;;;;;78.67;10.50;;;;;;;10.64;73.22;100274.13;1772486;79;21580;-62
2021/10/18 12:45:16;;;;;;;8.60;2.25;;;;;;;10.55;73.59;100273.17;1747481;81;21127;-61
2021/10/18 12:47:54;;;;;;;15.03;2.42;;;;;;;10.55;73.44;100274.02;1766355;80;20962;-61
2021/10/18 12:50:25;;;;;;;2.58;1.22;;;;;;;10.52;73.78;100270.23;1763886;79;20926;-61
2021/10/18 12:52:58;;;;;;;2.25;1.10;;;;;;;10.51;73.48;100264.62;1764457;79;21056;-61
2021/10/18 12:55:35;;;;;;;5.78;1.10;;;;;;;10.39;73.42;100265.95;1761561;79;21504;-62
2021/10/18 12:58:06;;;;;;;3.27;0.95;;;;;;;10.24;72.80;100264.70;1761142;79;21566;-61
2021/10/18 13:00:36;;;;;;;2.37;1.20;;;;;;;10.05;72.81;100263.67;1764380;79;21495;-61
2021/10/18 13:03:13;;;;;;;4.28;0.98;;;;;;;9.86;72.93;100261.75;1759878;79;20941;-61
2021/10/18 13:05:47;;;;;;;3.37;0.90;;;;;;;9.84;73.30;100265.31;1748918;81;20892;-61
2021/10/18 13:08:20;;;;;;;3.00;1.00;;;;;;;9.84;73.27;100261.41;1741975;81;21066;-61
2021/10/18 13:10:52;;;;;;;35.65;4.70;;;;;;;9.74;72.99;100263.92;1745237;81;21132;-61
2021/10/18 13:13:24;;;;;;;19.92;3.15;;;;;;;9.71;73.35;100261.43;1772774;79;21001;-61
2021/10/18 13:15:55;;;;;;;10.50;2.80;;;;;;;9.79;73.82;100254.19;1763583;79;21099;-61
2021/10/18 13:18:22;;;;;;;16.80;2.58;;;;;;;9.90;73.85;100261.18;1755304;81;20970;-61